ROMMA est une association bénévole à but non lucratif. Votre soutien est indispensable : ADHERER à ROMMA ou FAIRE un DON

St-Christophe/Guiers - Berland - (38, Isère)

Massif de la Chartreuse (533 m)   Longitude: 05° 46' 44" E   Latitude: 45° 25' 43" N Station partenaire n°32
 

Détail journalier du     <<     >>

Température Precipitation Humidité Pression Vent Dir Rafale Dir. rafale Ensol.
Heure (°C) (mm) (%) (hPa) (km/h) (km/h) (min)
01:00 8.208110141NNO6ENE0
02:00 7.408110144O16OSO0
03:00 6.708210154SSO10OSO0
04:00 6.308410154SO10SSO0
05:00 5.608410154SO10O0
06:00 4.908510153SO8SO0
07:00 4.308610153SSO8SSO0
08:00 3.908810165SO10SSO0
09:00 3.608810166SO15SSO0
10:00 4.108710166SO11SO0
11:00 5.108510166SO11SO0
12:00 7.207910177SO18SO35
13:00 7.907910177O16O0
14:00 8.907510176O15OSO0
15:00 9.907210176SO16OSO5
16:00 10.607110165O18O10
17:00 11.106510166OSO23O0
18:00 11.306110167OSO27O5
19:00 10.806010168OSO24OSO35
20:00 10.006210176OSO23O20
21:00 8.806410173O16ONO0
22:00 7.306510174OSO16OSO0
23:00 5.207610175E10ENE0
minuit 5.607510186ENE15NE0

Graphique du 12-04-2019

 

Serveur OMMA